createdAt,value
2018-04-10T00:00:33.015Z,13.15
2018-04-10T00:03:00.641Z,13.18
2018-04-10T00:05:28.381Z,13.21
2018-04-10T00:07:56.012Z,13.24
2018-04-10T00:10:23.634Z,13.21
2018-04-10T00:12:51.283Z,13.19
2018-04-10T00:15:18.847Z,13.20
2018-04-10T00:17:46.555Z,13.23
2018-04-10T00:20:14.185Z,13.24
2018-04-10T00:22:41.765Z,13.24
2018-04-10T00:25:10.468Z,13.24
2018-04-10T00:27:38.044Z,13.20
2018-04-10T00:30:05.622Z,13.19
2018-04-10T00:32:33.240Z,13.18
2018-04-10T00:35:00.813Z,13.15
2018-04-10T00:37:28.423Z,13.12
2018-04-10T00:39:56.066Z,13.05
2018-04-10T00:42:23.631Z,13.04
2018-04-10T00:44:51.257Z,13.00
2018-04-10T00:47:18.869Z,12.99
2018-04-10T00:49:46.429Z,12.93
2018-04-10T00:52:14.001Z,12.91
2018-04-10T00:54:41.781Z,12.90
2018-04-10T00:57:09.357Z,12.86
2018-04-10T00:59:36.996Z,12.79
2018-04-10T01:02:04.792Z,12.71
2018-04-10T01:04:32.371Z,12.54
2018-04-10T01:07:00.178Z,12.43
2018-04-10T01:09:27.789Z,12.34
2018-04-10T01:11:55.355Z,12.26
2018-04-10T01:14:22.934Z,12.21
2018-04-10T01:16:50.551Z,12.17
2018-04-10T01:19:18.137Z,12.15
2018-04-10T01:21:45.707Z,12.11
2018-04-10T01:24:13.378Z,12.00
2018-04-10T01:26:41.005Z,11.92
2018-04-10T01:29:08.573Z,11.88
2018-04-10T01:31:36.207Z,11.88
2018-04-10T01:34:03.859Z,11.90
2018-04-10T01:36:31.483Z,11.95
2018-04-10T01:38:59.180Z,11.97
2018-04-10T01:41:26.744Z,11.96
2018-04-10T01:43:54.322Z,11.99
2018-04-10T01:46:22.113Z,11.98
2018-04-10T01:48:49.676Z,11.97
2018-04-10T01:51:17.302Z,11.91
2018-04-10T01:53:45.021Z,11.88
2018-04-10T01:56:12.663Z,11.83
2018-04-10T01:58:40.243Z,11.79
2018-04-10T02:01:08.036Z,11.78
2018-04-10T02:03:35.606Z,11.75
2018-04-10T02:06:03.253Z,11.73
2018-04-10T02:08:31.192Z,11.72
2018-04-10T02:10:58.855Z,11.69
2018-04-10T02:13:26.443Z,11.62
2018-04-10T02:15:54.175Z,11.55
2018-04-10T02:18:21.749Z,11.51
2018-04-10T02:20:49.351Z,11.47
2018-04-10T02:23:17.040Z,11.42
2018-04-10T02:25:44.613Z,11.40
2018-04-10T02:28:12.268Z,11.38
2018-04-10T02:30:39.891Z,11.37
2018-04-10T02:33:07.512Z,11.36
2018-04-10T02:35:35.105Z,11.33
2018-04-10T02:38:02.756Z,11.28
2018-04-10T02:40:30.920Z,11.25
2018-04-10T02:42:58.557Z,11.26
2018-04-10T02:45:26.293Z,11.27
2018-04-10T02:47:53.866Z,11.23
2018-04-10T02:50:21.442Z,11.23
2018-04-10T02:52:49.213Z,11.17
2018-04-10T02:55:16.786Z,11.07
2018-04-10T02:57:44.435Z,11.01
2018-04-10T03:00:12.123Z,11.01
2018-04-10T03:02:39.792Z,11.01
2018-04-10T03:05:07.433Z,11.07
2018-04-10T03:07:35.045Z,11.03
2018-04-10T03:10:02.747Z,10.99
2018-04-10T03:12:30.318Z,10.96
2018-04-10T03:14:57.997Z,10.94
2018-04-10T03:17:25.573Z,10.94
2018-04-10T03:19:53.149Z,10.95
2018-04-10T03:22:20.870Z,10.94
2018-04-10T03:24:48.438Z,10.89
2018-04-10T03:27:16.100Z,10.90
2018-04-10T03:29:43.868Z,10.88
2018-04-10T03:32:11.500Z,10.86
2018-04-10T03:34:39.110Z,10.87
2018-04-10T03:37:06.731Z,10.84
2018-04-10T03:39:34.389Z,10.86
2018-04-10T03:42:02.032Z,10.88
2018-04-10T03:44:29.702Z,10.91
2018-04-10T03:46:57.281Z,10.93
2018-04-10T03:49:24.906Z,10.93
2018-04-10T03:51:52.745Z,10.90
2018-04-10T03:54:20.328Z,10.90
2018-04-10T03:56:47.899Z,10.84
2018-04-10T03:59:15.567Z,10.85
2018-04-10T04:01:43.146Z,10.84
2018-04-10T04:04:10.736Z,10.88
2018-04-10T04:06:38.363Z,10.90
2018-04-10T04:09:06.880Z,10.91
2018-04-10T04:11:34.611Z,10.98
2018-04-10T04:14:02.268Z,11.01
2018-04-10T04:16:41.690Z,11.08
2018-04-10T04:19:21.124Z,11.17
2018-04-10T04:22:07.256Z,11.26
2018-04-10T04:24:34.872Z,11.40
2018-04-10T04:27:02.456Z,11.53
2018-04-10T04:29:30.037Z,11.68
2018-04-10T04:31:57.840Z,11.83
2018-04-10T04:34:25.481Z,11.92
2018-04-10T04:36:53.141Z,12.02
2018-04-10T04:39:20.929Z,12.09
2018-04-10T04:41:48.558Z,12.08
2018-04-10T04:44:16.142Z,12.14
2018-04-10T04:46:43.760Z,12.26
2018-04-10T04:49:11.344Z,12.41
2018-04-10T04:51:39.496Z,12.40
2018-04-10T04:54:07.179Z,12.36
2018-04-10T04:56:34.772Z,12.43
2018-04-10T04:59:02.400Z,12.57
2018-04-10T05:01:30.204Z,12.74
2018-04-10T05:03:57.822Z,12.89
2018-04-10T05:06:25.451Z,13.06
2018-04-10T05:08:53.099Z,13.24
2018-04-10T05:11:20.731Z,13.43
2018-04-10T05:13:48.448Z,13.58
2018-04-10T05:16:16.075Z,14.21
2018-04-10T05:18:43.674Z,15.08
2018-04-10T05:21:11.313Z,15.90
2018-04-10T05:23:38.937Z,16.74
2018-04-10T05:26:06.536Z,17.93
2018-04-10T05:28:34.125Z,19.14
2018-04-10T05:31:01.797Z,20.11
2018-04-10T05:33:29.439Z,20.68
2018-04-10T05:35:57.031Z,21.24
2018-04-10T05:38:24.660Z,21.74
2018-04-10T05:40:52.248Z,22.27
2018-04-10T05:43:19.841Z,22.94
2018-04-10T05:45:47.582Z,23.48
2018-04-10T05:48:15.692Z,23.79
2018-04-10T05:50:43.279Z,23.72
2018-04-10T05:53:10.997Z,23.53
2018-04-10T05:55:38.582Z,23.42
2018-04-10T05:58:06.251Z,23.23
2018-04-10T06:00:33.947Z,23.03
2018-04-10T06:03:01.523Z,23.13
2018-04-10T06:05:29.184Z,23.02
2018-04-10T06:07:56.933Z,22.87
2018-04-10T06:10:24.504Z,22.92
2018-04-10T06:12:52.124Z,23.04
2018-04-10T06:15:19.996Z,23.07
2018-04-10T06:17:47.569Z,22.87
2018-04-10T06:20:15.237Z,23.11
2018-04-10T06:22:43.680Z,23.47
2018-04-10T06:25:11.254Z,23.62
2018-04-10T06:27:38.837Z,23.30
2018-04-10T06:30:06.468Z,23.23
2018-04-10T06:32:34.052Z,23.44
2018-04-10T06:35:01.655Z,23.24
2018-04-10T06:37:29.311Z,23.16
2018-04-10T06:39:56.959Z,22.97
2018-04-10T06:42:24.572Z,23.26
2018-04-10T06:44:53.266Z,23.10
2018-04-10T06:47:20.918Z,22.95
2018-04-10T06:49:48.501Z,23.03
2018-04-10T06:52:16.133Z,22.82
2018-04-10T06:54:43.773Z,22.71
2018-04-10T06:57:11.355Z,21.84
2018-04-10T06:59:39.063Z,22.12
2018-04-10T07:02:06.711Z,22.01
2018-04-10T07:04:34.313Z,21.96
2018-04-10T07:07:02.835Z,21.92
2018-04-10T07:09:31.190Z,21.85
2018-04-10T07:11:58.776Z,21.87
2018-04-10T07:14:26.395Z,21.95
2018-04-10T07:16:54.113Z,21.98
2018-04-10T07:19:21.703Z,21.81
2018-04-10T07:21:50.054Z,21.77
2018-04-10T07:24:17.637Z,21.77
2018-04-10T07:26:45.224Z,21.63
2018-04-10T07:29:12.842Z,21.75
2018-04-10T07:31:40.464Z,21.61
2018-04-10T07:34:08.027Z,21.37
2018-04-10T07:36:35.668Z,21.66
2018-04-10T07:39:03.335Z,21.80
2018-04-10T07:41:30.972Z,21.76
2018-04-10T07:43:58.597Z,21.60
2018-04-10T07:46:26.240Z,21.86
2018-04-10T07:48:53.813Z,22.13
2018-04-10T07:51:21.517Z,21.75
2018-04-10T07:53:49.161Z,22.18
2018-04-10T07:56:16.737Z,22.70
2018-04-10T07:58:44.359Z,22.83
2018-04-10T08:01:12.020Z,22.87
2018-04-10T08:03:39.654Z,22.84
2018-04-10T08:06:07.421Z,22.99
2018-04-10T08:08:35.193Z,23.09
2018-04-10T08:11:02.782Z,22.92
2018-04-10T08:13:30.497Z,23.31
2018-04-10T08:15:58.099Z,23.10
2018-04-10T08:18:25.875Z,23.18
2018-04-10T08:20:53.644Z,23.55
2018-04-10T08:23:21.338Z,23.41
2018-04-10T08:25:48.912Z,23.33
2018-04-10T08:28:16.591Z,22.95
2018-04-10T08:30:44.156Z,22.68
2018-04-10T08:33:11.758Z,22.21
2018-04-10T08:35:39.375Z,22.00
2018-04-10T08:38:06.952Z,22.22
2018-04-10T08:40:34.531Z,22.22
2018-04-10T08:43:02.183Z,22.49
2018-04-10T08:45:29.771Z,22.31
2018-04-10T08:47:57.421Z,22.38
2018-04-10T08:50:25.474Z,22.28
2018-04-10T08:52:53.062Z,22.36
2018-04-10T08:55:20.628Z,22.92
2018-04-10T08:57:48.251Z,22.33
2018-04-10T09:00:15.812Z,22.63
2018-04-10T09:02:43.389Z,23.07
2018-04-10T09:05:11.079Z,23.49
2018-04-10T09:07:38.651Z,23.92
2018-04-10T09:10:06.290Z,23.94
2018-04-10T09:12:34.065Z,24.24
2018-04-10T09:15:01.637Z,23.61
2018-04-10T09:17:29.231Z,23.46
2018-04-10T09:19:56.972Z,23.55
2018-04-10T09:22:24.548Z,23.44
2018-04-10T09:24:52.180Z,23.61
2018-04-10T09:27:20.636Z,23.22
2018-04-10T09:29:48.215Z,23.40
2018-04-10T09:32:15.780Z,23.48
2018-04-10T09:34:43.446Z,23.39
2018-04-10T09:37:11.096Z,23.33
2018-04-10T09:39:38.674Z,23.45
2018-04-10T09:42:06.301Z,23.51
2018-04-10T09:44:33.872Z,23.78
2018-04-10T09:47:01.513Z,23.72
2018-04-10T09:49:29.136Z,23.83
2018-04-10T09:51:56.709Z,23.84
2018-04-10T09:54:24.357Z,23.56
2018-04-10T09:56:51.989Z,23.60
2018-04-10T09:59:19.625Z,23.93
2018-04-10T10:01:47.196Z,24.32
2018-04-10T10:04:14.832Z,24.44
2018-04-10T10:06:42.457Z,24.55
2018-04-10T10:09:10.187Z,24.28
2018-04-10T10:11:37.881Z,24.62
2018-04-10T10:14:05.467Z,24.79
2018-04-10T10:16:33.047Z,24.93
2018-04-10T10:19:00.770Z,24.61
2018-04-10T10:21:28.498Z,24.71
2018-04-10T10:23:56.131Z,25.15
2018-04-10T10:26:23.752Z,25.38
2018-04-10T10:28:51.447Z,25.34
2018-04-10T10:31:19.030Z,25.28
2018-04-10T10:33:46.802Z,25.16
2018-04-10T10:36:14.447Z,25.29
2018-04-10T10:38:42.023Z,25.83
2018-04-10T10:41:09.650Z,25.58
2018-04-10T10:43:37.276Z,25.58
2018-04-10T10:46:04.884Z,25.47
2018-04-10T10:48:32.528Z,25.40
2018-04-10T10:51:00.178Z,25.27
2018-04-10T10:53:27.865Z,25.36
2018-04-10T10:55:55.480Z,25.52
2018-04-10T10:58:23.048Z,25.45
2018-04-10T11:00:50.678Z,25.56
2018-04-10T11:03:18.377Z,25.34
2018-04-10T11:05:45.975Z,25.57
2018-04-10T11:08:13.597Z,25.76
2018-04-10T11:10:41.292Z,25.97
2018-04-10T11:13:08.959Z,25.76
2018-04-10T11:15:36.613Z,25.89
2018-04-10T11:18:04.237Z,26.00
2018-04-10T11:20:31.869Z,25.94
2018-04-10T11:23:00.401Z,26.09
2018-04-10T11:25:28.027Z,25.48
2018-04-10T11:27:55.660Z,25.21
2018-04-10T11:30:23.228Z,25.40
2018-04-10T11:32:50.851Z,25.86
2018-04-10T11:35:18.432Z,26.16
2018-04-10T11:37:47.513Z,26.17
2018-04-10T11:40:15.276Z,26.17
2018-04-10T11:42:43.601Z,26.05
2018-04-10T11:45:11.979Z,26.26
2018-04-10T11:47:39.754Z,26.38
2018-04-10T11:50:07.395Z,26.03
2018-04-10T11:52:35.788Z,26.17
2018-04-10T11:55:04.223Z,26.38
2018-04-10T11:57:31.805Z,26.59
2018-04-10T11:59:59.446Z,26.87
2018-04-10T12:02:27.077Z,26.49
2018-04-10T12:04:54.708Z,26.40
2018-04-10T12:07:22.347Z,26.42
2018-04-10T12:09:50.060Z,26.48
2018-04-10T12:12:18.136Z,26.76
2018-04-10T12:14:45.706Z,26.39
2018-04-10T12:17:13.324Z,26.03
2018-04-10T12:19:40.888Z,26.39
2018-04-10T12:22:08.540Z,26.78
2018-04-10T12:24:36.556Z,27.26
2018-04-10T12:27:04.195Z,27.88
2018-04-10T12:29:31.832Z,28.97
2018-04-10T12:31:59.509Z,29.24
2018-04-10T12:34:27.113Z,30.02
2018-04-10T12:36:54.687Z,30.30
2018-04-10T12:39:22.342Z,30.59
2018-04-10T12:41:49.991Z,29.90
2018-04-10T12:44:18.351Z,28.73
2018-04-10T12:46:46.704Z,27.90
2018-04-10T12:49:14.342Z,27.72
2018-04-10T12:51:42.014Z,26.89
2018-04-10T12:54:09.720Z,26.94
2018-04-10T12:56:37.312Z,27.01
2018-04-10T12:59:04.909Z,26.90
2018-04-10T13:01:32.564Z,26.64
2018-04-10T13:04:00.133Z,26.03
2018-04-10T13:06:27.717Z,25.81
2018-04-10T13:08:55.397Z,25.82
2018-04-10T13:11:22.972Z,25.75
2018-04-10T13:13:50.718Z,25.70
2018-04-10T13:16:18.433Z,25.74
2018-04-10T13:18:46.012Z,25.81
2018-04-10T13:21:13.576Z,25.87
2018-04-10T13:23:41.212Z,25.71
2018-04-10T13:26:08.881Z,25.74
2018-04-10T13:28:36.514Z,25.79
2018-04-10T13:31:04.200Z,25.68
2018-04-10T13:33:31.788Z,25.68
2018-04-10T13:35:59.355Z,25.63
2018-04-10T13:38:27.045Z,25.41
2018-04-10T13:40:54.716Z,25.18
2018-04-10T13:43:22.332Z,25.32
2018-04-10T13:45:49.953Z,25.40
2018-04-10T13:48:17.589Z,25.56
2018-04-10T13:50:45.167Z,25.68
2018-04-10T13:53:12.876Z,25.51
2018-04-10T13:55:40.444Z,25.53
2018-04-10T13:58:08.025Z,25.64
2018-04-10T14:00:35.676Z,25.51
2018-04-10T14:03:03.249Z,25.25
2018-04-10T14:05:31.235Z,25.25
2018-04-10T14:08:00.487Z,25.19
2018-04-10T14:10:28.599Z,25.14
2018-04-10T14:12:56.250Z,25.02
2018-04-10T14:15:24.036Z,25.02
2018-04-10T14:17:51.676Z,25.06
2018-04-10T14:20:19.248Z,24.97
2018-04-10T14:22:47.686Z,25.04
2018-04-10T14:25:15.300Z,25.07
2018-04-10T14:27:42.950Z,25.07
2018-04-10T14:30:10.665Z,25.08
2018-04-10T14:32:38.248Z,25.05
2018-04-10T14:35:06.824Z,25.09
2018-04-10T14:37:34.534Z,25.02
2018-04-10T14:40:02.168Z,24.97
2018-04-10T14:42:29.732Z,24.97
2018-04-10T14:44:57.414Z,24.98
2018-04-10T14:47:25.045Z,25.10
2018-04-10T14:49:52.642Z,25.20
2018-04-10T14:52:20.304Z,25.24
2018-04-10T14:54:47.932Z,25.16
2018-04-10T14:57:15.522Z,25.10
2018-04-10T14:59:43.135Z,25.02
2018-04-10T15:02:10.712Z,25.02
2018-04-10T15:04:38.372Z,25.03
2018-04-10T15:07:06.088Z,25.03
2018-04-10T15:09:33.661Z,25.01
2018-04-10T15:12:01.231Z,25.04
2018-04-10T15:14:28.868Z,25.01
2018-04-10T15:16:56.483Z,25.01
2018-04-10T15:19:24.084Z,24.97
2018-04-10T15:21:51.705Z,24.97
2018-04-10T15:24:19.271Z,24.87
2018-04-10T15:26:46.832Z,24.84
2018-04-10T15:29:14.608Z,24.82
2018-04-10T15:31:42.353Z,24.77
2018-04-10T15:34:10.013Z,24.65
2018-04-10T15:36:37.788Z,24.62
2018-04-10T15:39:06.293Z,24.58
2018-04-10T15:41:33.932Z,24.55
2018-04-10T15:44:01.676Z,24.54
2018-04-10T15:46:29.248Z,24.54
2018-04-10T15:48:56.816Z,24.52
2018-04-10T15:51:24.456Z,24.48
2018-04-10T15:53:52.093Z,24.43
2018-04-10T15:56:19.736Z,24.36
2018-04-10T15:58:47.425Z,24.27
2018-04-10T16:01:15.003Z,24.21
2018-04-10T16:03:42.637Z,24.15
2018-04-10T16:06:10.263Z,24.10
2018-04-10T16:08:37.897Z,24.06
2018-04-10T16:11:06.413Z,24.03
2018-04-10T16:13:35.058Z,23.99
2018-04-10T16:16:02.642Z,23.90
2018-04-10T16:18:30.329Z,23.84
2018-04-10T16:20:58.001Z,23.78
2018-04-10T16:23:25.642Z,23.71
2018-04-10T16:25:53.212Z,23.64
2018-04-10T16:28:20.839Z,23.56
2018-04-10T16:30:48.641Z,23.49
2018-04-10T16:33:16.284Z,23.42
2018-04-10T16:35:44.861Z,23.28
2018-04-10T16:38:12.429Z,23.20
2018-04-10T16:40:40.000Z,23.12
2018-04-10T16:43:07.623Z,22.99
2018-04-10T16:45:35.253Z,22.90
2018-04-10T16:48:02.824Z,22.80
2018-04-10T16:50:30.552Z,22.69
2018-04-10T16:52:58.174Z,22.58
2018-04-10T16:55:25.775Z,22.50
2018-04-10T16:57:53.433Z,22.31
2018-04-10T17:00:21.072Z,22.21
2018-04-10T17:02:48.697Z,22.12
2018-04-10T17:05:16.497Z,22.06
2018-04-10T17:07:44.307Z,21.91
2018-04-10T17:10:11.891Z,21.80
2018-04-10T17:12:40.361Z,21.65
2018-04-10T17:15:07.964Z,21.52
2018-04-10T17:17:35.544Z,21.40
2018-04-10T17:20:03.400Z,21.24
2018-04-10T17:22:31.034Z,21.14
2018-04-10T17:24:58.677Z,21.10
2018-04-10T17:27:26.324Z,21.04
2018-04-10T17:29:53.950Z,20.95
2018-04-10T17:32:21.599Z,20.93
2018-04-10T17:34:49.207Z,20.89
2018-04-10T17:37:16.823Z,20.83
2018-04-10T17:39:44.420Z,20.80
2018-04-10T17:42:12.209Z,20.73
2018-04-10T17:44:39.846Z,20.70
2018-04-10T17:47:07.431Z,20.72
2018-04-10T17:49:35.689Z,20.70
2018-04-10T17:52:03.269Z,20.67
2018-04-10T17:54:30.944Z,20.65
2018-04-10T17:56:58.676Z,20.63
2018-04-10T17:59:26.325Z,20.54
2018-04-10T18:01:53.964Z,20.48
2018-04-10T18:04:21.656Z,20.43
2018-04-10T18:06:49.229Z,20.39
2018-04-10T18:09:16.805Z,20.37
2018-04-10T18:11:44.552Z,20.37
2018-04-10T18:14:12.182Z,20.32
2018-04-10T18:16:39.764Z,20.29
2018-04-10T18:19:07.915Z,20.31
2018-04-10T18:21:35.493Z,20.29
2018-04-10T18:24:03.077Z,20.28
2018-04-10T18:26:30.781Z,20.28
2018-04-10T18:28:58.363Z,20.34
2018-04-10T18:31:26.181Z,20.38
2018-04-10T18:33:54.126Z,20.39
2018-04-10T18:36:21.816Z,20.40
2018-04-10T18:38:49.399Z,20.41
2018-04-10T18:41:17.145Z,20.40
2018-04-10T18:43:44.789Z,20.42
2018-04-10T18:46:12.371Z,20.40
2018-04-10T18:48:40.001Z,20.46
2018-04-10T18:51:07.581Z,20.57
2018-04-10T18:53:35.191Z,20.64
2018-04-10T18:56:02.832Z,20.69
2018-04-10T18:58:30.415Z,20.70
2018-04-10T19:00:58.004Z,20.71
2018-04-10T19:03:25.654Z,20.72
2018-04-10T19:05:53.241Z,20.68
2018-04-10T19:08:20.819Z,20.65
2018-04-10T19:10:48.532Z,20.63
2018-04-10T19:13:16.217Z,20.61
2018-04-10T19:15:43.867Z,20.63
2018-04-10T19:18:11.605Z,20.58
2018-04-10T19:20:39.223Z,20.54
2018-04-10T19:23:06.820Z,20.52
2018-04-10T19:25:34.472Z,20.45
2018-04-10T19:28:02.161Z,20.40
2018-04-10T19:30:30.612Z,20.31
2018-04-10T19:32:58.307Z,20.22
2018-04-10T19:35:26.058Z,20.13
2018-04-10T19:37:53.631Z,20.11
2018-04-10T19:40:21.656Z,20.07
2018-04-10T19:42:49.295Z,20.02
2018-04-10T19:45:16.958Z,20.00
2018-04-10T19:47:44.601Z,19.99
2018-04-10T19:50:12.321Z,19.99
2018-04-10T19:52:39.924Z,20.00
2018-04-10T19:55:07.641Z,19.98
2018-04-10T19:57:35.284Z,19.99
2018-04-10T20:00:02.860Z,19.98
2018-04-10T20:02:30.500Z,19.97
2018-04-10T20:04:58.145Z,19.94
2018-04-10T20:07:25.714Z,19.90
2018-04-10T20:09:53.355Z,19.89
2018-04-10T20:12:20.928Z,19.85
2018-04-10T20:14:48.528Z,19.83
2018-04-10T20:17:16.248Z,19.79
2018-04-10T20:19:43.869Z,19.78
2018-04-10T20:22:11.473Z,19.75
2018-04-10T20:24:39.185Z,19.70
2018-04-10T20:27:06.833Z,19.67
2018-04-10T20:29:34.402Z,19.63
2018-04-10T20:32:02.094Z,19.59
2018-04-10T20:34:29.713Z,19.54
2018-04-10T20:36:57.367Z,19.49
2018-04-10T20:39:25.136Z,19.46
2018-04-10T20:41:52.714Z,19.43
2018-04-10T20:44:20.319Z,19.41
2018-04-10T20:46:48.078Z,19.38
2018-04-10T20:49:15.667Z,19.35
2018-04-10T20:51:43.297Z,19.30
2018-04-10T20:54:10.981Z,19.30
2018-04-10T20:56:38.564Z,19.29
2018-04-10T20:59:06.152Z,19.30
2018-04-10T21:01:33.868Z,19.32
2018-04-10T21:04:01.448Z,19.32
2018-04-10T21:06:29.072Z,19.33
2018-04-10T21:08:56.697Z,19.35
2018-04-10T21:11:24.308Z,19.35
2018-04-10T21:13:51.940Z,19.34
2018-04-10T21:16:19.731Z,19.34
2018-04-10T21:18:47.296Z,19.33
2018-04-10T21:21:14.929Z,19.33
2018-04-10T21:23:42.652Z,19.31
2018-04-10T21:26:10.285Z,19.29
2018-04-10T21:28:37.912Z,19.23
2018-04-10T21:31:05.602Z,19.14
2018-04-10T21:33:33.260Z,19.04
2018-04-10T21:36:00.833Z,18.94
2018-04-10T21:38:28.537Z,18.84
2018-04-10T21:40:56.156Z,18.75
2018-04-10T21:43:29.480Z,18.69
2018-04-10T21:45:57.122Z,18.55
2018-04-10T21:48:24.768Z,18.47
2018-04-10T21:50:52.577Z,18.43
2018-04-10T21:53:20.212Z,18.33
2018-04-10T21:55:47.806Z,18.27
2018-04-10T21:58:15.441Z,18.20
2018-04-10T22:00:43.092Z,18.11
2018-04-10T22:03:10.703Z,18.09
2018-04-10T22:05:38.348Z,18.05
2018-04-10T22:08:05.992Z,18.03
2018-04-10T22:10:33.563Z,17.99
2018-04-10T22:13:01.185Z,17.91
2018-04-10T22:15:28.774Z,17.81
2018-04-10T22:17:56.444Z,17.72
2018-04-10T22:20:24.221Z,17.63
2018-04-10T22:22:51.780Z,17.57
2018-04-10T22:25:19.420Z,17.55
2018-04-10T22:27:47.132Z,17.47
2018-04-10T22:30:14.718Z,17.42
2018-04-10T22:32:42.257Z,17.35
2018-04-10T22:35:09.882Z,17.22
2018-04-10T22:37:37.513Z,17.12
2018-04-10T22:40:05.265Z,17.09
2018-04-10T22:42:32.892Z,17.06
2018-04-10T22:45:00.531Z,17.05
2018-04-10T22:47:28.095Z,16.98
2018-04-10T22:49:55.834Z,16.88
2018-04-10T22:52:23.465Z,16.79
2018-04-10T22:54:51.080Z,16.73
2018-04-10T22:57:18.757Z,16.74
2018-04-10T22:59:46.389Z,16.74
2018-04-10T23:02:13.963Z,16.73
2018-04-10T23:04:41.754Z,16.69
2018-04-10T23:07:09.344Z,16.65
2018-04-10T23:09:36.988Z,16.64
2018-04-10T23:12:04.660Z,16.63
2018-04-10T23:14:32.295Z,16.62
2018-04-10T23:16:59.914Z,16.62
2018-04-10T23:19:27.702Z,16.65
2018-04-10T23:21:55.327Z,16.69
2018-04-10T23:24:22.932Z,16.72
2018-04-10T23:26:50.693Z,16.73
2018-04-10T23:29:18.321Z,16.77
2018-04-10T23:31:45.883Z,16.81
2018-04-10T23:34:13.514Z,16.87
2018-04-10T23:36:41.133Z,16.93
2018-04-10T23:39:08.716Z,17.01
2018-04-10T23:41:36.812Z,17.10
2018-04-10T23:44:04.416Z,17.14
2018-04-10T23:46:31.987Z,17.16
2018-04-10T23:48:59.598Z,17.16
2018-04-10T23:51:27.166Z,17.21
2018-04-10T23:53:54.734Z,17.23
2018-04-10T23:56:22.445Z,17.25
2018-04-10T23:58:50.012Z,17.28
